Time;durP1;ratioP1;P1;durP2;ratioP2;P2;SDS_P1;SDS_P2;PMS_P1;PMS_P2;Temp;Humidity;BMP_temperature;BMP_pressure;BME280_temperature;BME280_humidity;BME280_pressure;Samples;Min_cycle;Max_cycle;Signal;HPM_P1;HPM_P2
2022/10/02 00:00:45;;;;;;;;;;;;;;;;;;12567664;28;20356;-78
2022/10/02 00:06:47;;;;;;;;;;;;;;;;;;12583988;28;19912;-78
2022/10/02 00:12:49;;;;;;;;;;;;;;;;;;12584230;28;19916;-78
2022/10/02 00:18:50;;;;;;;;;;;;;;;;;;12567890;28;19909;-78
2022/10/02 00:24:52;;;;;;;;;;;;;;;;;;12585523;28;19912;-78
2022/10/02 00:30:53;;;;;;;;;;;;;;;;;;12585256;28;19920;-77
2022/10/02 00:36:55;;;;;;;;;;;;;;;;;;12584657;28;19924;-78
2022/10/02 00:42:57;;;;;;;;;;;;;;;;;;12586201;28;20238;-77
2022/10/02 00:48:58;;;;;;;;;;;;;;;;;;12593667;28;20265;-78
2022/10/02 00:55:00;;;;;;;;;;;;;;;;;;12591606;28;19924;-78
2022/10/02 01:01:01;;;;;;;;;;;;;;;;;;12592654;28;19908;-79
2022/10/02 01:07:03;;;;;;;;;;;;;;;;;;12592784;28;19908;-78
2022/10/02 01:13:05;;;;;;;;;;;;;;;;;;12591701;28;19924;-78
2022/10/02 01:19:06;;;;;;;;;;;;;;;;;;12592646;28;20336;-78
2022/10/02 01:25:08;;;;;;;;;;;;;;;;;;12592603;28;19968;-77
2022/10/02 01:31:09;;;;;;;;;;;;;;;;;;12591699;28;20395;-78
2022/10/02 01:37:11;;;;;;;;;;;;;;;;;;12590334;28;20356;-78
2022/10/02 01:43:13;;;;;;;;;;;;;;;;;;12573256;28;20360;-79
2022/10/02 01:49:14;;;;;;;;;;;;;;;;;;12573247;28;19916;-78
2022/10/02 01:55:16;;;;;;;;;;;;;;;;;;12588484;28;19920;-78
2022/10/02 02:01:18;;;;;;;;;;;;;;;;;;12589914;28;20360;-78
2022/10/02 02:07:22;;;;;;;;;;;;;;;;;;12590503;28;20312;-78
2022/10/02 02:13:25;;;;;;;;;;;;;;;;;;12588175;28;19927;-78
2022/10/02 02:19:26;;;;;;;;;;;;;;;;;;12589229;28;19915;-78
2022/10/02 02:25:28;;;;;;;;;;;;;;;;;;12589053;28;19919;-79
2022/10/02 02:31:30;;;;;;;;;;;;;;;;;;12571618;28;19924;-79
2022/10/02 02:37:31;;;;;;;;;;;;;;;;;;12589472;28;19919;-78
2022/10/02 02:43:33;;;;;;;;;;;;;;;;;;12570104;28;19909;-78
2022/10/02 02:49:34;;;;;;;;;;;;;;;;;;12587200;28;19920;-79
2022/10/02 02:55:36;;;;;;;;;;;;;;;;;;12587587;28;19920;-79
2022/10/02 03:01:37;;;;;;;;;;;;;;;;;;12588133;28;19909;-79
2022/10/02 03:07:39;;;;;;;;;;;;;;;;;;12569918;28;19935;-79
2022/10/02 03:13:41;;;;;;;;;;;;;;;;;;12587856;28;20268;-79
2022/10/02 03:19:43;;;;;;;;;;;;;;;;;;12588205;28;19915;-79
2022/10/02 03:25:44;;;;;;;;;;;;;;;;;;12587375;28;19923;-78
2022/10/02 03:31:46;;;;;;;;;;;;;;;;;;12586378;28;20477;-78
2022/10/02 03:37:48;;;;;;;;;;;;;;;;;;12586834;28;19908;-78
2022/10/02 03:43:49;;;;;;;;;;;;;;;;;;12587213;28;19908;-78
2022/10/02 03:49:51;;;;;;;;;;;;;;;;;;12587313;28;19917;-79
2022/10/02 03:55:53;;;;;;;;;;;;;;;;;;12585288;28;20334;-78
2022/10/02 04:01:54;;;;;;;;;;;;;;;;;;12567816;28;19916;-78
2022/10/02 04:07:56;;;;;;;;;;;;;;;;;;12584638;28;20253;-78
2022/10/02 04:13:57;;;;;;;;;;;;;;;;;;12586239;28;19916;-78
2022/10/02 04:19:59;;;;;;;;;;;;;;;;;;12573321;28;19919;-78
2022/10/02 04:26:00;;;;;;;;;;;;;;;;;;12594563;28;20074;-78
2022/10/02 04:32:02;;;;;;;;;;;;;;;;;;12593856;28;19916;-78
2022/10/02 04:38:03;;;;;;;;;;;;;;;;;;12594014;28;20815;-78
2022/10/02 04:44:05;;;;;;;;;;;;;;;;;;12593031;28;19908;-78
2022/10/02 04:50:06;;;;;;;;;;;;;;;;;;12593894;28;19916;-79
2022/10/02 04:56:08;;;;;;;;;;;;;;;;;;12593499;28;19943;-78
2022/10/02 05:02:09;;;;;;;;;;;;;;;;;;12575225;28;19909;-78
2022/10/02 05:08:11;;;;;;;;;;;;;;;;;;12593206;28;20369;-79
2022/10/02 05:14:14;;;;;;;;;;;;;;;;;;12590617;28;19924;-78
2022/10/02 05:20:15;;;;;;;;;;;;;;;;;;12592483;28;19908;-79
2022/10/02 05:26:17;;;;;;;;;;;;;;;;;;12590540;28;19919;-79
2022/10/02 05:32:18;;;;;;;;;;;;;;;;;;12573662;28;20321;-79
2022/10/02 05:38:20;;;;;;;;;;;;;;;;;;12591708;28;19908;-79
2022/10/02 05:44:21;;;;;;;;;;;;;;;;;;12573016;28;19908;-78
2022/10/02 05:50:23;;;;;;;;;;;;;;;;;;12591848;28;19917;-78
2022/10/02 05:56:25;;;;;;;;;;;;;;;;;;12591409;28;19939;-78
2022/10/02 06:02:27;;;;;;;;;;;;;;;;;;12572417;28;19909;-78
2022/10/02 06:08:30;;;;;;;;;;;;;;;;;;12588344;28;19908;-78
2022/10/02 06:14:32;;;;;;;;;;;;;;;;;;12588153;28;19936;-78
2022/10/02 06:20:33;;;;;;;;;;;;;;;;;;12587524;28;19959;-78
2022/10/02 06:26:35;;;;;;;;;;;;;;;;;;12587438;28;19939;-78
2022/10/02 06:32:36;;;;;;;;;;;;;;;;;;12570290;28;19917;-78
2022/10/02 06:38:38;;;;;;;;;;;;;;;;;;12587940;28;19909;-80
2022/10/02 06:44:39;;;;;;;;;;;;;;;;;;12568756;28;19930;-79
2022/10/02 06:50:42;;;;;;;;;;;;;;;;;;12585351;28;19999;-80
2022/10/02 06:56:44;;;;;;;;;;;;;;;;;;12587330;28;20297;-79
2022/10/02 07:02:45;;;;;;;;;;;;;;;;;;12585423;28;19909;-79
2022/10/02 07:08:47;;;;;;;;;;;;;;;;;;12585100;28;19930;-78
2022/10/02 07:14:49;;;;;;;;;;;;;;;;;;12585517;28;20308;-78
2022/10/02 07:20:51;;;;;;;;;;;;;;;;;;12585550;28;19970;-79
2022/10/02 07:26:52;;;;;;;;;;;;;;;;;;12585847;28;19920;-79
2022/10/02 07:32:54;;;;;;;;;;;;;;;;;;12583870;28;19923;-79
2022/10/02 07:38:55;;;;;;;;;;;;;;;;;;12584451;28;20365;-79
2022/10/02 07:44:57;;;;;;;;;;;;;;;;;;12567036;28;19916;-79
2022/10/02 07:50:59;;;;;;;;;;;;;;;;;;12585318;28;19920;-79
2022/10/02 07:57:00;;;;;;;;;;;;;;;;;;12595192;28;19919;-79
2022/10/02 08:03:02;;;;;;;;;;;;;;;;;;12577524;28;19909;-78
2022/10/02 08:09:03;;;;;;;;;;;;;;;;;;12595003;28;20451;-79
2022/10/02 08:15:05;;;;;;;;;;;;;;;;;;12594690;28;19920;-79
2022/10/02 08:21:07;;;;;;;;;;;;;;;;;;12595768;28;19908;-78
2022/10/02 08:27:08;;;;;;;;;;;;;;;;;;12576045;28;19912;-78
2022/10/02 08:33:10;;;;;;;;;;;;;;;;;;12594200;28;19916;-78
2022/10/02 08:39:11;;;;;;;;;;;;;;;;;;12594724;28;19919;-78
2022/10/02 08:45:14;;;;;;;;;;;;;;;;;;12593408;28;19915;-79
2022/10/02 08:51:16;;;;;;;;;;;;;;;;;;12543727;28;19916;-78
2022/10/02 08:57:18;;;;;;;;;;;;;;;;;;12541767;28;19913;-79
2022/10/02 09:03:19;;;;;;;;;;;;;;;;;;12543381;28;19908;-78
2022/10/02 09:09:21;;;;;;;;;;;;;;;;;;12541466;28;19909;-79
2022/10/02 09:15:22;;;;;;;;;;;;;;;;;;12541958;28;19916;-78
2022/10/02 09:21:24;;;;;;;;;;;;;;;;;;12543329;28;19909;-78
2022/10/02 09:27:25;;;;;;;;;;;;;;;;;;12540850;28;19917;-78
2022/10/02 09:33:27;;;;;;;;;;;;;;;;;;12540162;28;19916;-78
2022/10/02 09:39:28;;;;;;;;;;;;;;;;;;12542657;28;19909;-80
2022/10/02 09:45:31;;;;;;;;;;;;;;;;;;12540450;28;19909;-79
2022/10/02 09:51:32;;;;;;;;;;;;;;;;;;12555452;28;19917;-78
2022/10/02 09:57:34;;;;;;;;;;;;;;;;;;12589105;28;19913;-78
2022/10/02 10:03:37;;;;;;;;;;;;;;;;;;12589875;28;20395;-79
2022/10/02 10:09:39;;;;;;;;;;;;;;;;;;12587555;28;19908;-78
2022/10/02 10:15:40;;;;;;;;;;;;;;;;;;12586074;28;19924;-79
2022/10/02 10:21:42;;;;;;;;;;;;;;;;;;12563346;28;20325;-79
2022/10/02 10:27:43;;;;;;;;;;;;;;;;;;12588837;28;19909;-79
2022/10/02 10:33:45;;;;;;;;;;;;;;;;;;12588002;28;19927;-79
2022/10/02 10:39:47;;;;;;;;;;;;;;;;;;12587663;28;19908;-79
2022/10/02 10:45:48;;;;;;;;;;;;;;;;;;12586820;28;19908;-79
2022/10/02 10:51:50;;;;;;;;;;;;;;;;;;12586657;28;19927;-78
2022/10/02 10:57:51;;;;;;;;;;;;;;;;;;12586447;28;20346;-78
2022/10/02 11:03:53;;;;;;;;;;;;;;;;;;12586587;28;19908;-78
2022/10/02 11:09:54;;;;;;;;;;;;;;;;;;12585003;28;19912;-79
2022/10/02 11:15:57;;;;;;;;;;;;;;;;;;12585995;28;19939;-78
2022/10/02 11:21:59;;;;;;;;;;;;;;;;;;12579459;28;19916;-78
2022/10/02 11:28:00;;;;;;;;;;;;;;;;;;12585075;28;20221;-80
2022/10/02 11:34:02;;;;;;;;;;;;;;;;;;12584067;28;19924;-80
2022/10/02 11:40:04;;;;;;;;;;;;;;;;;;12585428;28;19912;-79
2022/10/02 11:46:05;;;;;;;;;;;;;;;;;;12585412;28;19931;-79
2022/10/02 11:52:07;;;;;;;;;;;;;;;;;;12579227;28;19927;-79
2022/10/02 11:58:09;;;;;;;;;;;;;;;;;;12583665;28;19908;-79
2022/10/02 12:04:10;;;;;;;;;;;;;;;;;;12585256;28;19908;-79
2022/10/02 12:10:12;;;;;;;;;;;;;;;;;;12583775;28;19908;-78
2022/10/02 12:16:14;;;;;;;;;;;;;;;;;;12567168;28;19928;-78
2022/10/02 12:28:35;;;;;;;;;;;;;;;;;;12584031;28;19908;-78
2022/10/02 12:34:37;;;;;;;;;;;;;;;;;;12584485;28;19916;-78
2022/10/02 12:40:40;;;;;;;;;;;;;;;;;;12588238;28;20265;-78
2022/10/02 12:46:42;;;;;;;;;;;;;;;;;;12593851;28;19908;-79
2022/10/02 12:52:43;;;;;;;;;;;;;;;;;;12572943;28;20356;-79
2022/10/02 12:58:45;;;;;;;;;;;;;;;;;;12591093;28;19913;-78
2022/10/02 13:04:46;;;;;;;;;;;;;;;;;;12592221;28;19915;-79
2022/10/02 13:10:48;;;;;;;;;;;;;;;;;;12591660;28;19931;-79
2022/10/02 13:16:51;;;;;;;;;;;;;;;;;;12591725;28;19923;-78
2022/10/02 13:22:53;;;;;;;;;;;;;;;;;;12591480;28;20325;-78
2022/10/02 13:28:55;;;;;;;;;;;;;;;;;;12572315;28;19919;-79
2022/10/02 13:34:56;;;;;;;;;;;;;;;;;;12588923;28;19972;-79
2022/10/02 13:40:58;;;;;;;;;;;;;;;;;;12590836;28;19915;-78
2022/10/02 13:46:59;;;;;;;;;;;;;;;;;;12589570;28;19915;-78
2022/10/02 13:53:02;;;;;;;;;;;;;;;;;;12589266;28;19983;-78
2022/10/02 13:59:04;;;;;;;;;;;;;;;;;;12587724;28;19909;-79
2022/10/02 14:05:05;;;;;;;;;;;;;;;;;;12588949;28;19928;-79
2022/10/02 14:11:07;;;;;;;;;;;;;;;;;;12587217;28;19924;-79
2022/10/02 14:17:09;;;;;;;;;;;;;;;;;;12586916;28;19909;-78
2022/10/02 14:23:11;;;;;;;;;;;;;;;;;;12588308;28;19974;-79
2022/10/02 14:29:13;;;;;;;;;;;;;;;;;;12569726;28;20272;-78
2022/10/02 14:35:14;;;;;;;;;;;;;;;;;;12585963;28;20013;-78
2022/10/02 14:41:17;;;;;;;;;;;;;;;;;;12586161;28;19924;-79
2022/10/02 14:47:20;;;;;;;;;;;;;;;;;;12585374;28;20268;-78
2022/10/02 14:53:21;;;;;;;;;;;;;;;;;;12569108;28;19947;-79
2022/10/02 14:59:23;;;;;;;;;;;;;;;;;;12586051;28;20316;-78
2022/10/02 15:05:24;;;;;;;;;;;;;;;;;;12569071;28;19908;-79
2022/10/02 15:11:26;;;;;;;;;;;;;;;;;;12584340;28;19916;-79
2022/10/02 15:23:48;;;;;;;;;;;;;;;;;;12584342;28;19931;-79
2022/10/02 15:29:50;;;;;;;;;;;;;;;;;;12567535;28;19919;-79
2022/10/02 15:35:51;;;;;;;;;;;;;;;;;;12585830;28;19926;-79
2022/10/02 15:41:53;;;;;;;;;;;;;;;;;;12583359;28;20210;-79
2022/10/02 15:47:54;;;;;;;;;;;;;;;;;;12585034;28;20109;-79
2022/10/02 15:53:57;;;;;;;;;;;;;;;;;;12584902;28;19927;-78
2022/10/02 15:59:58;;;;;;;;;;;;;;;;;;12585255;28;19913;-79
2022/10/02 16:06:01;;;;;;;;;;;;;;;;;;12584740;28;19934;-78
2022/10/02 16:12:03;;;;;;;;;;;;;;;;;;12587809;28;19916;-78
2022/10/02 16:18:04;;;;;;;;;;;;;;;;;;12594064;28;19912;-78
2022/10/02 16:24:07;;;;;;;;;;;;;;;;;;12592386;28;19913;-78
2022/10/02 16:30:11;;;;;;;;;;;;;;;;;;12591706;28;19926;-78
2022/10/02 16:36:33;;;;;;;;;;;;;;;;;;12590708;28;19972;-78
2022/10/02 16:42:34;;;;;;;;;;;;;;;;;;12591981;28;19996;-78
2022/10/02 16:48:36;;;;;;;;;;;;;;;;;;12591966;28;19999;-78
2022/10/02 16:54:37;;;;;;;;;;;;;;;;;;12591540;28;19943;-78
2022/10/02 17:00:39;;;;;;;;;;;;;;;;;;12592697;28;19909;-79
2022/10/02 17:07:06;;;;;;;;;;;;;;;;;;12590409;28;19908;-79
2022/10/02 17:13:08;;;;;;;;;;;;;;;;;;12589377;28;20184;-78
2022/10/02 17:19:09;;;;;;;;;;;;;;;;;;12592134;28;20302;-79
2022/10/02 17:25:11;;;;;;;;;;;;;;;;;;12590866;28;20006;-78
2022/10/02 17:31:13;;;;;;;;;;;;;;;;;;12589153;28;19908;-78
2022/10/02 17:37:14;;;;;;;;;;;;;;;;;;12588927;28;20383;-79
2022/10/02 17:43:16;;;;;;;;;;;;;;;;;;12589513;28;19920;-78
2022/10/02 17:49:17;;;;;;;;;;;;;;;;;;12590377;28;19916;-79
2022/10/02 18:01:40;;;;;;;;;;;;;;;;;;12582215;28;20272;-78
2022/10/02 18:07:41;;;;;;;;;;;;;;;;;;12590200;28;19908;-78
2022/10/02 18:13:43;;;;;;;;;;;;;;;;;;12588841;28;20312;-78
2022/10/02 18:19:45;;;;;;;;;;;;;;;;;;12588254;28;19912;-79
2022/10/02 18:25:49;;;;;;;;;;;;;;;;;;12572069;28;19919;-80
2022/10/02 18:31:51;;;;;;;;;;;;;;;;;;12588310;28;19920;-78
2022/10/02 18:37:56;;;;;;;;;;;;;;;;;;12586892;28;19908;-79
2022/10/02 18:43:58;;;;;;;;;;;;;;;;;;12588541;28;20364;-78
2022/10/02 18:49:59;;;;;;;;;;;;;;;;;;12587341;28;19975;-79
2022/10/02 18:56:01;;;;;;;;;;;;;;;;;;12587941;28;19928;-79
2022/10/02 19:02:02;;;;;;;;;;;;;;;;;;12586557;28;19908;-79
2022/10/02 19:08:04;;;;;;;;;;;;;;;;;;12587157;28;19930;-79
2022/10/02 19:14:06;;;;;;;;;;;;;;;;;;12586796;28;19916;-79
2022/10/02 19:20:08;;;;;;;;;;;;;;;;;;12587119;28;19908;-79
2022/10/02 19:26:09;;;;;;;;;;;;;;;;;;12587151;28;19912;-78
2022/10/02 19:32:12;;;;;;;;;;;;;;;;;;12585102;28;19961;-79
2022/10/02 19:38:13;;;;;;;;;;;;;;;;;;12584392;28;20241;-79
2022/10/02 19:44:15;;;;;;;;;;;;;;;;;;12585685;28;19920;-79
2022/10/02 19:50:16;;;;;;;;;;;;;;;;;;12590500;28;19924;-79
2022/10/02 19:56:23;;;;;;;;;;;;;;;;;;12595740;28;20336;-79
2022/10/02 20:02:24;;;;;;;;;;;;;;;;;;12594383;28;19915;-79
2022/10/02 20:08:26;;;;;;;;;;;;;;;;;;12594384;28;19912;-79
2022/10/02 20:14:27;;;;;;;;;;;;;;;;;;12576452;28;20385;-77
2022/10/02 20:20:29;;;;;;;;;;;;;;;;;;12575985;28;19927;-78
2022/10/02 20:26:32;;;;;;;;;;;;;;;;;;12593141;28;20007;-78
2022/10/02 20:32:34;;;;;;;;;;;;;;;;;;12592418;28;19916;-79
2022/10/02 20:38:36;;;;;;;;;;;;;;;;;;12592173;28;19912;-78
2022/10/02 20:44:37;;;;;;;;;;;;;;;;;;12592592;28;19909;-77
2022/10/02 20:50:39;;;;;;;;;;;;;;;;;;12590763;28;19916;-78
2022/10/02 20:56:41;;;;;;;;;;;;;;;;;;12592934;28;20288;-79
2022/10/02 21:02:43;;;;;;;;;;;;;;;;;;12590152;28;19938;-80
2022/10/02 21:08:46;;;;;;;;;;;;;;;;;;12591602;28;20003;-78
2022/10/02 21:14:52;;;;;;;;;;;;;;;;;;12591309;28;20018;-78
2022/10/02 21:20:54;;;;;;;;;;;;;;;;;;12588909;28;19963;-78
2022/10/02 21:26:56;;;;;;;;;;;;;;;;;;12572529;28;19916;-78
2022/10/02 21:32:58;;;;;;;;;;;;;;;;;;12588852;28;19916;-77
2022/10/02 21:38:59;;;;;;;;;;;;;;;;;;12590483;28;20340;-78
2022/10/02 21:45:01;;;;;;;;;;;;;;;;;;12590997;28;19915;-78
2022/10/02 21:51:02;;;;;;;;;;;;;;;;;;12569732;28;19928;-79
2022/10/02 21:57:04;;;;;;;;;;;;;;;;;;12568728;28;19928;-79
2022/10/02 22:03:05;;;;;;;;;;;;;;;;;;12585782;28;19912;-79
2022/10/02 22:09:07;;;;;;;;;;;;;;;;;;12587521;28;20277;-79
2022/10/02 22:15:09;;;;;;;;;;;;;;;;;;12588530;28;19917;-78
2022/10/02 22:21:10;;;;;;;;;;;;;;;;;;12590103;28;19908;-79
2022/10/02 22:27:12;;;;;;;;;;;;;;;;;;12587114;28;19920;-80
2022/10/02 22:33:13;;;;;;;;;;;;;;;;;;12586799;28;20310;-79
2022/10/02 22:39:15;;;;;;;;;;;;;;;;;;12588010;28;20274;-78
2022/10/02 22:45:16;;;;;;;;;;;;;;;;;;12569814;28;19909;-78
2022/10/02 22:51:18;;;;;;;;;;;;;;;;;;12569222;28;19916;-78
2022/10/02 22:57:22;;;;;;;;;;;;;;;;;;12586636;28;19962;-77
2022/10/02 23:03:24;;;;;;;;;;;;;;;;;;12585374;28;19908;-78
2022/10/02 23:09:25;;;;;;;;;;;;;;;;;;12585792;28;19924;-78
2022/10/02 23:15:27;;;;;;;;;;;;;;;;;;12585231;28;19928;-79
2022/10/02 23:21:29;;;;;;;;;;;;;;;;;;12567672;28;20341;-78
2022/10/02 23:27:30;;;;;;;;;;;;;;;;;;12583678;28;19971;-78
2022/10/02 23:33:32;;;;;;;;;;;;;;;;;;12584869;28;19920;-78
2022/10/02 23:39:33;;;;;;;;;;;;;;;;;;12583399;28;19931;-78
2022/10/02 23:45:36;;;;;;;;;;;;;;;;;;12585397;28;19908;-78
2022/10/02 23:51:37;;;;;;;;;;;;;;;;;;12582549;28;19916;-78
2022/10/02 23:57:39;;;;;;;;;;;;;;;;;;12584599;28;19986;-78
